METAR AND TAF INFORMATION
METAR FOR LFRC
ADDS - METARS form results

(2252 UTC 19 May 2019)
Data provider http://aviationweather.gov/metar/data/
 
METAR text: LFRC 192230Z AUTO 31005KT 4200 -RA BR NSC 11/10 Q1012
Conditions at: LFRC (CHERBOURG/MAUPER, FR) observed 2230 UTC 19 May 2019
Temperature: 11.0°C (52°F)
Dewpoint: 10.0°C (50°F) [RH = 94%]
Pressure (altimeter): 29.88 inches Hg (1012.0 mb)
Winds: from the NW (310 degrees) at 6 MPH (5 knots; 2.6 m/s)
Visibility: 2.61 miles (4.20 km)
Ceiling: at least 12,000 feet AGL
Clouds: sky clear below 12,000 feet AGL
Weather: -RA BR  (light rain, mist)

METAR text: LFRC 192200Z AUTO 31005KT 4200 BR NSC 11/10 Q1012
Conditions at: LFRC (CHERBOURG/MAUPER, FR) observed 2200 UTC 19 May 2019
Temperature: 11.0°C (52°F)
Dewpoint: 10.0°C (50°F) [RH = 94%]
Pressure (altimeter): 29.88 inches Hg (1012.0 mb)
Winds: from the NW (310 degrees) at 6 MPH (5 knots; 2.6 m/s)
Visibility: 2.61 miles (4.20 km)
Ceiling: at least 12,000 feet AGL
Clouds: sky clear below 12,000 feet AGL
Weather: BR  (mist)

Forecast for: LFRC (CHERBOURG/MAUPER, FR)
Text: TAF LFRC 191400Z 1915/1924 32006KT 4000 BR BKN005
Forecast period: 1500 UTC 19 May 2019 to 0000 UTC 20 May 2019
Forecast type: FROM: standard forecast or significant change
Winds: from the NW (320 degrees) at 7 MPH (6 knots; 3.1 m/s)
Visibility: 2.49 miles (4.01 km)
Ceiling: 500 feet AGL
Clouds: broken clouds at 500 feet AGL
Weather: BR  (mist)
Text: BECMG 1915/1918 9999 NSW BKN020
Forecast period: 1500 UTC 19 May 2019 to 0000 UTC 20 May 2019
Forecast type: BECOMING: Conditions expected to become as follows by 1800 UTC 19 May 2019
Winds: from the NW (320 degrees) at 7 MPH (6 knots; 3.1 m/s)
Visibility: 6 or more miles 10+ km)
Ceiling: 2000 feet AGL
Clouds: broken clouds at 2000 feet AGL
Weather: NSW  (no significant weather)

 AIRPORT MAP

 RUNWAY INFORMATION
Runway 10 Runway length 8005 ft Runway width 148 ft
Runway elevation 452 ft Runway displaced threshold 0 ft Runway heading 101
Runway 28 Runway length 8005 ft Runway width 148 ft
Runway elevation 428 ft Runway displaced threshold 0 ft Runway heading 281

 AIRPORT FREQUENCIES
Type APP Name DEAUVILLE Frequency 119.35 MHZ
Type TWR Name CHERBOURG Frequency 119.625 MHZ

 AIRPORT NEAR NAVIGATION AIDS



Powered by Virtual Airlines Manager [v2.6.2]